Morning Cecilie — 3FHK6 — position and weather

sailwx.info

Track history (hours):
 
Tides and Currents Weather Stations Pressure Air Temp Water Temp Dewpoint Dewpoint Depression Visibility Wind Speed Wind Dir Waves Ship Positions

Morning Cecilie

Last reported at 2018-Feb-22 02:09 UTC. Time now 2018-Feb-24 10:08 UTC.
Position S 23°52' W 044°07'.

Length 199 m; draft 8.4 m.

Type: Cargo ship. MMSI: 370869000.

Date/timePositionNaut miles runAvg speedWind from/ knotsBaromVisibWave heightAir tempDewpointWater temp
2018-Feb-22 02:09S 23°52' W 044°07'418.6
2018-Feb-22 01:57S 23°51' W 044°03'1318.4
2018-Feb-22 01:14S 23°47' W 043°49'618.1
2018-Feb-22 00:55S 23°45' W 043°43'818.2
2018-Feb-22 00:28S 23°42' W 043°35'818.2
2018-Feb-22 00:01S 23°40' W 043°26'917.6
2018-Feb-21 23:30S 23°37' W 043°17'918.1
2018-Feb-21 23:00S 23°34' W 043°07'1218.6
2018-Feb-21 22:22S 23°30' W 042°55'718.6
2018-Feb-21 22:00S 23°28' W 042°48'918.4
2018-Feb-21 21:30S 23°25' W 042°39'918.5
2018-Feb-21 21:00S 23°23' W 042°29'918.5
2018-Feb-21 20:30S 23°20' W 042°20'  
Track history (hours):
 
Tides and Currents Weather Stations Pressure Air Temp Water Temp Dewpoint Dewpoint Depression Visibility Wind Speed Wind Dir Waves Ship Positions

Morning Cecilie

Last reported at 2018-Feb-22 02:09 UTC. Time now 2018-Feb-24 10:08 UTC.
Position S 23°52' W 044°07'.

Length 199 m; draft 8.4 m.

Type: Cargo ship. MMSI: 370869000.

Date/timePositionNaut miles runAvg speedWind from/ knotsBaromVisibWave heightAir tempDewpointWater temp
2018-Feb-22 02:09S 23°52' W 044°07'418.6
2018-Feb-22 01:57S 23°51' W 044°03'1318.4
2018-Feb-22 01:14S 23°47' W 043°49'618.1
2018-Feb-22 00:55S 23°45' W 043°43'818.2
2018-Feb-22 00:28S 23°42' W 043°35'818.2
2018-Feb-22 00:01S 23°40' W 043°26'917.6
2018-Feb-21 23:30S 23°37' W 043°17'918.1
2018-Feb-21 23:00S 23°34' W 043°07'1218.6
2018-Feb-21 22:22S 23°30' W 042°55'718.6
2018-Feb-21 22:00S 23°28' W 042°48'918.4
2018-Feb-21 21:30S 23°25' W 042°39'918.5
2018-Feb-21 21:00S 23°23' W 042°29'918.5
2018-Feb-21 20:30S 23°20' W 042°20'  

Dump ship's entire track history